Time;durP1;ratioP1;P1;durP2;ratioP2;P2;SDS_P1;SDS_P2;PMS_P1;PMS_P2;Temp;Humidity;BMP_temperature;BMP_pressure;BME280_temperature;BME280_humidity;BME280_pressure;Samples;Min_cycle;Max_cycle;Signal;HPM_P1;HPM_P2
2021/08/10 00:02:18;;;;;;;;;61.75;48.00;;;;;32.36;37.85;101054.31;144144;574;132028;-69
2021/08/10 00:04:52;;;;;;;;;57.25;47.25;;;;;32.41;37.48;101053.81;144160;581;132012;-69
2021/08/10 00:07:26;;;;;;;;;62.25;49.75;;;;;32.48;37.05;101056.63;144154;573;132010;-70
2021/08/10 00:10:00;;;;;;;;;60.25;50.00;;;;;32.58;36.93;101056.41;144157;563;132018;-69
2021/08/10 00:12:35;;;;;;;;;64.00;51.25;;;;;32.65;36.90;101057.37;144166;583;131021;-70
2021/08/10 00:15:11;;;;;;;;;68.00;58.67;;;;;32.69;36.61;101056.00;144164;821;132012;-70
2021/08/10 00:17:45;;;;;;;;;68.25;56.50;;;;;32.72;36.51;101051.09;144161;586;131020;-71
2021/08/10 00:20:19;;;;;;;;;74.67;64.33;;;;;32.77;36.57;101047.81;144171;930;133008;-71
2021/08/10 00:22:53;;;;;;;;;75.33;70.67;;;;;32.79;35.86;101047.63;144159;647;132012;-69
2021/08/10 00:25:27;;;;;;;;;75.00;70.67;;;;;32.77;35.91;101055.97;144162;579;131030;-71
2021/08/10 00:28:03;;;;;;;;;74.33;69.67;;;;;32.73;36.33;101052.75;144143;613;131925;-70
2021/08/10 00:30:39;;;;;;;;;71.33;65.67;;;;;32.60;37.17;101048.91;144162;571;131018;-67
2021/08/10 00:33:13;;;;;;;;;78.00;69.33;;;;;32.62;36.95;101055.88;144172;648;131020;-68
2021/08/10 00:35:47;;;;;;;;;78.33;73.00;;;;;32.55;37.14;101049.47;144161;753;131019;-67
2021/08/10 00:38:21;;;;;;;;;74.67;71.67;;;;;32.49;37.32;101044.72;144166;615;131020;-67
2021/08/10 00:40:58;;;;;;;;;77.00;71.67;;;;;32.43;37.51;101040.87;144163;636;132012;-67
2021/08/10 00:43:39;;;;;;;;;77.67;73.00;;;;;32.43;37.55;101049.03;144162;593;131999;-68
2021/08/10 00:46:15;;;;;;;;;75.67;72.33;;;;;32.41;37.48;101045.66;144173;685;131018;-67
2021/08/10 00:48:49;;;;;;;;;76.00;72.33;;;;;32.40;37.62;101055.66;144162;577;132010;-72
2021/08/10 00:51:24;;;;;;;;;76.33;73.00;;;;;32.40;37.67;101046.66;144161;574;132008;-67
2021/08/10 00:53:58;;;;;;;;;76.00;70.00;;;;;32.43;37.79;101049.03;144150;590;132923;-68
2021/08/10 00:56:32;;;;;;;;;74.33;70.67;;;;;32.39;38.13;101044.97;144157;575;132012;-68
2021/08/10 00:59:07;;;;;;;;;74.67;69.33;;;;;32.25;38.71;101059.28;144165;621;131021;-66
2021/08/10 01:01:41;;;;;;;;;74.67;68.33;;;;;32.24;38.76;101055.75;144164;578;132012;-67
2021/08/10 01:04:15;;;;;;;;;72.33;64.67;;;;;32.29;39.25;101064.22;144165;640;132011;-67
2021/08/10 01:07:40;;;;;;;;;73.33;66.00;;;;;32.29;39.41;101049.75;144159;644;132008;-67
2021/08/10 01:10:47;;;;;;;;;70.33;63.00;;;;;32.35;39.55;101051.78;144165;577;132019;-68
2021/08/10 01:13:56;;;;;;;;;71.00;63.00;;;;;32.39;39.54;101053.13;144168;669;132013;-70
2021/08/10 01:16:57;;;;;;;;;69.67;61.33;;;;;32.43;39.82;101054.47;144166;609;131025;-68
2021/08/10 01:20:35;;;;;;;;;70.00;62.00;;;;;32.30;40.11;101041.47;144163;637;131019;-68
2021/08/10 01:23:12;;;;;;;;;72.67;62.67;;;;;32.29;40.20;101052.47;144143;586;132012;-71
2021/08/10 01:26:21;;;;;;;;;71.67;64.33;;;;;32.27;40.14;101047.22;144151;570;132012;-68
2021/08/10 01:29:21;;;;;;;;;73.33;66.00;;;;;32.21;40.34;101040.66;144160;751;132012;-69
2021/08/10 01:31:56;;;;;;;;;72.33;64.00;;;;;32.22;40.53;101044.22;144155;587;132012;-67
2021/08/10 01:34:46;;;;;;;;;72.33;68.00;;;;;32.20;40.44;101028.09;144170;641;131021;-68
2021/08/10 01:37:26;;;;;;;;;72.00;63.00;;;;;32.15;40.11;101040.50;144158;591;132010;-66
2021/08/10 01:40:04;;;;;;;;;70.00;62.00;;;;;32.19;40.04;101020.13;144153;873;132012;-66
2021/08/10 01:42:41;;;;;;;;;72.33;65.67;;;;;32.04;40.90;101022.69;144174;570;132009;-69
2021/08/10 01:45:16;;;;;;;;;71.00;64.67;;;;;31.98;41.74;101032.41;144171;580;131020;-68
2021/08/10 01:47:52;;;;;;;;;76.33;69.33;;;;;31.88;41.97;101024.47;144158;673;132020;-71
2021/08/10 01:50:28;;;;;;;;;77.67;73.33;;;;;32.02;41.83;101017.44;144143;571;132012;-71
2021/08/10 01:53:02;;;;;;;;;77.67;71.00;;;;;32.09;41.67;101016.75;144153;592;132012;-70
2021/08/10 01:55:39;;;;;;;;;76.67;72.00;;;;;32.13;41.63;101018.94;144167;603;131923;-72
2021/08/10 01:58:14;;;;;;;;;74.33;70.00;;;;;32.17;41.56;101024.91;144157;695;132013;-73
2021/08/10 02:00:48;;;;;;;;;72.67;65.67;;;;;32.14;41.25;101020.63;144164;569;131923;-71
2021/08/10 02:03:22;;;;;;;;;72.00;64.00;;;;;32.10;40.89;101029.31;144161;626;132010;-72
2021/08/10 02:05:57;;;;;;;;;75.00;68.67;;;;;32.04;41.33;101029.00;144171;644;132010;-68
2021/08/10 02:08:32;;;;;;;;;75.33;66.00;;;;;31.98;41.33;101029.69;144177;665;132010;-69
2021/08/10 02:11:07;;;;;;;;;71.00;64.00;;;;;32.02;40.93;101024.75;144164;569;132923;-72
2021/08/10 02:13:43;;;;;;;;;74.33;68.33;;;;;32.05;40.63;101032.53;144163;567;131020;-69
2021/08/10 02:16:18;;;;;;;;;74.67;68.67;;;;;32.09;40.29;101031.16;144154;670;131923;-70
2021/08/10 02:18:52;;;;;;;;;71.33;64.00;;;;;31.95;40.00;101034.66;144167;593;131018;-71
2021/08/10 02:21:47;;;;;;;;;71.33;61.67;;;;;31.82;39.77;101033.34;144170;768;132012;-71
2021/08/10 02:24:35;;;;;;;;;72.00;63.67;;;;;31.77;40.14;101038.44;144165;582;131026;-71
2021/08/10 02:27:13;;;;;;;;;71.33;63.00;;;;;31.71;40.51;101052.69;144155;571;132012;-73
2021/08/10 02:29:49;;;;;;;;;76.33;72.33;;;;;31.79;40.11;101046.41;144160;592;132010;-71
2021/08/10 02:32:29;;;;;;;;;73.00;63.67;;;;;31.84;40.15;101050.28;144168;824;131021;-68
2021/08/10 02:35:05;;;;;;;;;70.00;59.33;;;;;31.83;39.79;101054.00;144170;570;132012;-68
2021/08/10 02:37:40;;;;;;;;;74.33;65.00;;;;;31.82;39.86;101052.34;144162;604;132012;-72
2021/08/10 02:40:18;;;;;;;;;72.67;63.33;;;;;31.79;39.65;101051.84;144158;649;132015;-72
2021/08/10 02:42:56;;;;;;;;;68.00;57.00;;;;;31.86;39.44;101059.09;144151;795;131923;-72
2021/08/10 02:45:31;;;;;;;;;75.00;68.67;;;;;31.97;39.20;101059.72;144160;648;131018;-72
2021/08/10 02:48:05;;;;;;;;;74.67;68.00;;;;;31.99;39.51;101063.97;144160;596;132012;-71
2021/08/10 02:50:41;;;;;;;;;73.67;65.00;;;;;31.97;39.06;101070.59;144156;577;132012;-71
2021/08/10 02:53:15;;;;;;;;;75.00;70.00;;;;;32.03;38.77;101075.34;144172;579;131923;-67
2021/08/10 02:56:12;;;;;;;;;77.67;71.00;;;;;32.01;38.37;101080.09;144161;574;131019;-68
2021/08/10 02:59:16;;;;;;;;;79.33;73.33;;;;;32.02;37.60;101079.91;144159;696;132012;-70
2021/08/10 03:02:13;;;;;;;;;75.33;66.00;;;;;32.02;37.25;101087.22;144168;564;132010;-70
2021/08/10 03:05:04;;;;;;;;;79.00;73.33;;;;;31.96;37.49;101087.91;144169;720;131027;-68
2021/08/10 03:07:44;;;;;;;;;75.33;71.67;;;;;31.87;37.81;101087.94;144164;620;131018;-69
2021/08/10 03:10:21;;;;;;;;;74.33;68.00;;;;;31.84;37.67;101092.88;144155;572;131923;-67
2021/08/10 03:12:56;;;;;;;;;81.67;77.00;;;;;31.78;37.70;101089.00;144165;676;131018;-67
2021/08/10 03:15:31;;;;;;;;;76.33;72.33;;;;;31.69;37.54;101090.03;144160;579;132010;-67
2021/08/10 03:18:09;;;;;;;;;78.00;71.00;;;;;31.41;37.70;101084.94;144157;564;131019;-66
2021/08/10 03:20:46;;;;;;;;;77.00;71.33;;;;;31.36;37.53;101090.03;144162;647;132010;-67
2021/08/10 03:23:22;;;;;;;;;77.00;73.33;;;;;31.33;36.85;101084.94;144156;731;132010;-67
2021/08/10 03:25:57;;;;;;;;;78.00;70.33;;;;;31.27;36.62;101080.22;144159;592;132012;-67
2021/08/10 03:28:32;;;;;;;;;75.33;69.67;;;;;31.27;35.99;101077.50;144169;589;133012;-66
2021/08/10 03:31:06;;;;;;;;;76.00;71.67;;;;;31.19;35.50;101076.50;144165;571;132010;-68
2021/08/10 03:33:40;;;;;;;;;78.00;71.67;;;;;31.08;35.07;101071.37;144164;585;132010;-67
2021/08/10 03:36:16;;;;;;;;;74.00;65.33;;;;;31.14;34.86;101064.44;144150;653;132010;-68
2021/08/10 03:38:50;;;;;;;;;70.67;63.67;;;;;31.17;34.99;101070.38;144153;572;132011;-68
2021/08/10 03:41:26;;;;;;;;;76.00;70.00;;;;;31.24;34.95;101070.56;144166;678;131923;-67
2021/08/10 03:44:01;;;;;;;;;72.67;63.67;;;;;31.19;35.25;101068.34;144156;634;132012;-68
2021/08/10 03:46:36;;;;;;;;;73.00;64.00;;;;;31.33;34.75;101065.94;144160;564;132013;-70
2021/08/10 03:49:11;;;;;;;;;74.33;66.33;;;;;31.27;35.22;101058.50;144158;611;132008;-68
2021/08/10 03:51:45;;;;;;;;;76.67;73.00;;;;;31.25;35.99;101060.53;144159;597;132010;-69
2021/08/10 03:54:19;;;;;;;;;77.67;72.00;;;;;31.17;36.53;101055.97;144170;685;132012;-68
2021/08/10 03:56:56;;;;;;;;;78.00;72.67;;;;;31.14;36.83;101053.59;144167;625;131923;-68
2021/08/10 03:59:31;;;;;;;;;80.33;75.67;;;;;31.22;37.04;101049.03;144159;593;132010;-68
2021/08/10 04:02:07;;;;;;;;;76.00;66.00;;;;;31.31;36.83;101054.44;144148;575;132010;-68
2021/08/10 04:04:44;;;;;;;;;76.00;71.67;;;;;31.30;36.69;101058.16;144162;598;131020;-68
2021/08/10 04:07:18;;;;;;;;;76.00;68.00;;;;;31.32;36.11;101062.41;144164;631;132010;-68
2021/08/10 04:09:53;;;;;;;;;68.33;58.33;;;;;31.35;35.83;101062.06;144163;603;131022;-68
2021/08/10 04:12:28;;;;;;;;;72.67;64.00;;;;;31.46;35.44;101065.44;144166;580;131020;-68
2021/08/10 04:15:02;;;;;;;;;64.75;52.50;;;;;31.46;34.41;101073.59;144162;614;131018;-68
2021/08/10 04:17:41;;;;;;;;;66.33;54.00;;;;;31.39;34.21;101065.28;144160;597;131923;-69
2021/08/10 04:20:17;;;;;;;;;70.33;56.33;;;;;31.20;34.45;101069.19;144178;569;132008;-68
2021/08/10 04:22:51;;;;;;;;;67.00;55.00;;;;;31.48;34.00;101066.09;144157;693;132012;-68
2021/08/10 04:25:25;;;;;;;;;64.33;53.00;;;;;31.55;34.03;101064.41;144166;661;131019;-69
2021/08/10 04:27:59;;;;;;;;;67.00;56.67;;;;;31.59;33.88;101067.63;144146;673;132010;-69
2021/08/10 04:30:33;;;;;;;;;65.33;53.33;;;;;31.61;33.12;101066.47;144152;720;132013;-69
2021/08/10 04:33:07;;;;;;;;;66.67;56.00;;;;;31.62;33.57;101072.72;144159;586;132011;-68
2021/08/10 04:35:41;;;;;;;;;68.67;59.00;;;;;31.63;34.51;101071.72;144156;866;132010;-67
2021/08/10 04:38:15;;;;;;;;;69.33;59.33;;;;;31.66;35.30;101071.37;144166;575;131923;-69
2021/08/10 04:40:49;;;;;;;;;70.33;59.67;;;;;31.70;35.84;101080.87;144165;737;132008;-68
2021/08/10 04:43:23;;;;;;;;;69.00;57.67;;;;;31.76;36.68;101082.88;144164;749;131922;-71
2021/08/10 04:45:57;;;;;;;;;72.00;66.67;;;;;31.89;36.48;101083.19;144175;566;132013;-70
2021/08/10 04:48:31;;;;;;;;;70.33;62.33;;;;;32.06;36.89;101091.28;144166;749;131021;-69
2021/08/10 04:51:05;;;;;;;;;70.33;64.67;;;;;32.20;36.97;101092.44;144160;579;132010;-68
2021/08/10 04:53:44;;;;;;;;;73.33;67.33;;;;;32.14;37.17;101093.12;144147;615;131927;-70
2021/08/10 04:56:18;;;;;;;;;72.67;64.33;;;;;32.38;37.14;101095.75;144161;588;132008;-69
2021/08/10 04:58:52;;;;;;;;;71.00;61.00;;;;;32.55;36.81;101103.81;144154;603;132010;-71
2021/08/10 05:01:25;;;;;;;;;72.67;68.33;;;;;32.70;36.93;101096.59;144159;589;132012;-69
2021/08/10 05:03:59;;;;;;;;;73.67;68.67;;;;;32.89;36.50;101091.75;144155;569;132012;-69
2021/08/10 05:06:33;;;;;;;;;75.67;72.33;;;;;33.05;35.35;101090.75;144163;623;132012;-68
2021/08/10 05:09:08;;;;;;;;;73.67;70.67;;;;;33.21;33.68;101082.44;144160;634;132010;-68
2021/08/10 05:11:42;;;;;;;;;77.67;73.00;;;;;33.30;33.66;101080.56;144173;679;131032;-68
2021/08/10 05:14:16;;;;;;;;;77.33;72.33;;;;;33.43;33.90;101066.31;144168;582;131026;-67
2021/08/10 05:16:50;;;;;;;;;79.00;73.67;;;;;33.53;33.70;101064.16;144161;655;132012;-68
2021/08/10 05:19:25;;;;;;;;;77.00;73.33;;;;;33.57;33.57;101057.31;144145;585;132010;-67
2021/08/10 05:21:59;;;;;;;;;78.00;75.67;;;;;33.62;34.06;101054.03;144158;601;132028;-67
2021/08/10 05:24:33;;;;;;;;;83.00;78.33;;;;;33.44;35.07;101054.41;144164;612;131021;-68
2021/08/10 05:27:07;;;;;;;;;74.33;71.33;;;;;33.67;35.21;101045.31;144155;565;132012;-69
2021/08/10 05:29:41;;;;;;;;;72.67;69.67;;;;;33.92;35.52;101059.50;144163;581;132010;-69
2021/08/10 05:32:15;;;;;;;;;77.00;69.00;;;;;33.93;35.73;101058.47;144156;624;132010;-69
2021/08/10 05:34:49;;;;;;;;;74.33;71.67;;;;;34.21;35.98;101069.50;144162;929;131020;-69
2021/08/10 05:37:22;;;;;;;;;74.33;70.33;;;;;34.36;36.56;101057.78;144171;599;133008;-67
2021/08/10 05:39:56;;;;;;;;;75.25;70.75;;;;;34.39;36.84;101060.09;144157;573;132031;-69
2021/08/10 05:42:30;;;;;;;;;67.50;58.25;;;;;34.38;37.85;101064.72;144157;603;132010;-71
2021/08/10 05:45:04;;;;;;;;;67.25;59.00;;;;;33.80;39.40;101059.12;144147;594;131923;-68
2021/08/10 05:47:38;;;;;;;;;72.00;70.67;;;;;33.81;39.79;101070.87;144158;590;132012;-70
2021/08/10 05:50:13;;;;;;;;;66.75;56.25;;;;;34.39;38.99;101076.47;144157;624;132010;-69
2021/08/10 05:52:47;;;;;;;;;73.25;72.50;;;;;34.82;39.12;101082.00;144162;599;132011;-70
2021/08/10 05:55:21;;;;;;;;;72.33;69.67;;;;;34.47;40.46;101081.78;144162;810;131020;-69
2021/08/10 05:57:55;;;;;;;;;72.25;69.25;;;;;34.38;40.89;101085.69;144155;569;132010;-69
2021/08/10 06:00:29;;;;;;;;;64.00;54.75;;;;;35.01;39.75;101085.97;144159;617;131923;-70
2021/08/10 06:03:03;;;;;;;;;79.00;74.33;;;;;35.15;39.89;101097.81;144177;576;131026;-69
2021/08/10 06:05:36;;;;;;;;;70.25;65.00;;;;;33.67;42.59;101094.31;144161;569;132010;-69
2021/08/10 06:08:11;;;;;;;;;68.75;62.00;;;;;34.04;41.58;101100.75;144156;635;132012;-67
2021/08/10 06:10:44;;;;;;;;;71.00;68.75;;;;;34.47;41.22;101105.50;144145;612;131026;-66
2021/08/10 06:13:18;;;;;;;;;74.33;73.33;;;;;35.22;40.88;101114.25;144159;576;131018;-67
2021/08/10 06:15:52;;;;;;;;;76.33;75.33;;;;;34.92;42.39;101122.56;144159;599;132010;-67
2021/08/10 06:18:26;;;;;;;;;79.00;76.67;;;;;35.04;42.58;101118.28;144159;593;132012;-66
2021/08/10 06:21:00;;;;;;;;;75.50;72.00;;;;;35.08;42.26;101130.50;144167;787;131012;-67
2021/08/10 06:23:34;;;;;;;;;72.67;70.67;;;;;35.10;42.91;101133.03;144160;593;133008;-67
2021/08/10 06:26:08;;;;;;;;;82.00;79.00;;;;;34.65;43.81;101135.03;144161;638;131027;-66
2021/08/10 06:28:43;;;;;;;;;71.33;69.67;;;;;35.58;41.80;101136.00;144177;566;131029;-66
2021/08/10 06:31:17;;;;;;;;;79.67;77.00;;;;;34.61;43.52;101148.19;144164;573;132010;-67
2021/08/10 06:33:52;;;;;;;;;81.00;76.33;;;;;35.30;41.79;101148.75;144160;931;132010;-66
2021/08/10 06:36:26;;;;;;;;;79.00;76.33;;;;;35.64;41.61;101145.28;144148;569;132010;-66
2021/08/10 06:39:01;;;;;;;;;78.33;76.33;;;;;35.98;40.97;101145.53;144162;564;131018;-66
2021/08/10 06:41:35;;;;;;;;;81.33;80.00;;;;;35.63;41.49;101143.59;144160;581;132010;-67
2021/08/10 06:44:09;;;;;;;;;85.00;81.67;;;;;36.18;40.04;101149.19;144161;573;132011;-66
2021/08/10 06:46:44;;;;;;;;;76.67;74.67;;;;;35.94;39.73;101158.75;144157;564;132021;-67
2021/08/10 06:49:18;;;;;;;;;86.00;84.00;;;;;35.99;39.39;101160.88;144159;575;131018;-66
2021/08/10 06:51:53;;;;;;;;;77.67;75.67;;;;;35.81;39.09;101155.91;144167;583;131021;-66
2021/08/10 06:54:27;;;;;;;;;88.33;84.67;;;;;35.96;39.23;101159.37;144176;566;131018;-67
2021/08/10 06:57:06;;;;;;;;;89.33;85.33;;;;;36.20;38.60;101171.72;144161;578;133923;-67
2021/08/10 06:59:42;;;;;;;;;97.67;89.00;;;;;36.23;37.54;101165.84;143840;566;309015;-67
2021/08/10 07:02:18;;;;;;;;;84.33;80.67;;;;;36.30;37.45;101160.41;144151;578;132008;-67
2021/08/10 07:04:53;;;;;;;;;88.00;85.67;;;;;36.51;36.47;101159.50;144164;603;131019;-67
2021/08/10 07:07:26;;;;;;;;;78.67;76.00;;;;;36.22;36.27;101164.16;144164;577;132021;-67
2021/08/10 07:10:01;;;;;;;;;78.67;75.67;;;;;36.38;35.53;101162.19;144157;876;132014;-67
2021/08/10 07:12:34;;;;;;;;;74.00;71.50;;;;;36.63;34.94;101167.94;144160;594;131918;-67
2021/08/10 07:15:09;;;;;;;;;70.00;65.50;;;;;36.63;34.48;101161.63;144161;622;132011;-67
2021/08/10 07:17:43;;;;;;;;;69.50;63.25;;;;;36.66;34.22;101158.47;144161;582;131020;-67
2021/08/10 07:20:17;;;;;;;;;67.00;59.50;;;;;36.34;32.78;101150.78;144171;599;133006;-68
2021/08/10 07:22:51;;;;;;;;;67.75;59.00;;;;;36.58;32.22;101154.91;144160;622;131919;-67
2021/08/10 07:25:25;;;;;;;;;65.25;56.50;;;;;36.92;32.27;101146.78;144159;588;132008;-67
2021/08/10 07:27:59;;;;;;;;;64.50;56.00;;;;;36.80;32.01;101143.84;144147;676;131918;-67
2021/08/10 07:30:33;;;;;;;;;60.75;49.75;;;;;37.05;31.80;101141.34;144157;595;132008;-67
2021/08/10 07:33:07;;;;;;;;;52.50;43.00;;;;;37.05;27.94;101132.31;144163;590;131020;-67
2021/08/10 07:35:41;;;;;;;;;49.75;41.25;;;;;37.39;26.22;101127.72;144161;588;132006;-68
2021/08/10 07:38:15;;;;;;;;;46.25;39.25;;;;;37.18;27.09;101126.84;144161;584;132008;-68
2021/08/10 07:40:50;;;;;;;;;47.75;40.00;;;;;37.33;27.19;101129.41;144161;654;132020;-67
2021/08/10 07:43:25;;;;;;;;;53.00;42.50;;;;;37.85;26.76;101126.00;144163;598;131919;-67
2021/08/10 07:46:00;;;;;;;;;49.00;41.50;;;;;37.44;26.88;101127.91;144178;591;133010;-67
2021/08/10 07:48:37;;;;;;;;;51.50;42.50;;;;;36.77;27.50;101130.53;144164;680;132008;-67
2021/08/10 07:51:11;;;;;;;;;49.25;40.75;;;;;36.54;27.24;101123.53;144160;621;132008;-67
2021/08/10 07:53:45;;;;;;;;;52.75;41.75;;;;;36.98;25.95;101131.47;144151;596;132008;-67
2021/08/10 07:56:19;;;;;;;;;55.75;44.75;;;;;35.63;28.64;101127.19;144157;590;132010;-67
2021/08/10 07:58:56;;;;;;;;;55.50;45.00;;;;;35.27;30.29;101138.22;144167;613;131021;-68
2021/08/10 08:01:30;;;;;;;;;52.75;43.50;;;;;34.98;30.03;101137.31;144163;702;132008;-68
2021/08/10 08:04:03;;;;;;;;;51.75;42.50;;;;;34.92;29.61;101141.66;144158;586;132008;-67
2021/08/10 08:06:37;;;;;;;;;46.00;39.50;;;;;35.00;29.92;101140.72;144163;590;132008;-67
2021/08/10 08:09:11;;;;;;;;;60.75;49.25;;;;;34.97;28.00;101144.66;144155;647;132010;-67
2021/08/10 08:11:45;;;;;;;;;53.50;44.50;;;;;35.46;28.16;101132.13;144175;639;132008;-68
2021/08/10 08:14:20;;;;;;;;;54.50;44.75;;;;;35.22;27.37;101133.34;144156;652;131919;-67
2021/08/10 08:16:55;;;;;;;;;61.00;50.00;;;;;35.00;27.30;101127.06;144162;648;132008;-67
2021/08/10 08:19:29;;;;;;;;;64.75;54.50;;;;;34.84;28.98;101122.69;144140;635;132010;-67
2021/08/10 08:22:03;;;;;;;;;65.50;56.25;;;;;35.40;27.26;101122.00;144152;611;132010;-67
2021/08/10 08:24:37;;;;;;;;;68.25;63.00;;;;;34.90;27.43;101120.03;144163;658;131918;-67
2021/08/10 08:27:11;;;;;;;;;71.50;69.25;;;;;35.87;26.80;101120.47;144159;609;132010;-67
2021/08/10 08:29:45;;;;;;;;;84.25;81.50;;;;;37.29;24.50;101119.09;144151;579;132008;-67
2021/08/10 08:32:19;;;;;;;;;79.25;77.25;;;;;36.73;24.96;101127.38;144158;565;132010;-67
2021/08/10 08:35:03;;;;;;;;;104.00;101.67;;;;;35.91;26.32;101131.81;144161;577;132009;-67
2021/08/10 08:37:39;;;;;;;;;89.33;87.33;;;;;37.60;23.00;101126.66;144168;597;132026;-68
2021/08/10 08:40:13;;;;;;;;;126.75;122.75;;;;;37.32;23.50;101124.13;144161;573;132010;-67
2021/08/10 08:42:47;;;;;;;;;153.75;149.25;;;;;37.59;23.72;101120.34;144158;596;133010;-67
2021/08/10 08:45:21;;;;;;;;;104.33;98.33;;;;;37.66;24.50;101123.06;144151;594;131917;-67
2021/08/10 08:47:57;;;;;;;;;89.67;84.33;;;;;38.03;23.81;101126.16;144160;670;131018;-67
2021/08/10 08:50:31;;;;;;;;;78.50;73.75;;;;;38.14;24.39;101124.66;144161;657;132008;-67
2021/08/10 08:53:07;;;;;;;;;69.75;64.50;;;;;37.98;24.93;101122.41;144160;589;132008;-67
2021/08/10 08:55:41;;;;;;;;;75.00;73.25;;;;;37.95;24.21;101112.72;144158;617;132008;-67
2021/08/10 08:58:17;;;;;;;;;69.50;65.25;;;;;37.97;24.56;101115.22;144154;599;132006;-67
2021/08/10 09:00:50;;;;;;;;;65.25;58.50;;;;;37.39;25.80;101109.41;144163;674;132008;-68
2021/08/10 09:03:24;;;;;;;;;68.75;65.00;;;;;37.90;25.09;101110.59;144167;626;132010;-67
2021/08/10 09:05:58;;;;;;;;;69.25;66.00;;;;;38.42;24.50;101113.38;144159;578;132008;-68
2021/08/10 09:08:43;;;;;;;;;76.00;74.25;;;;;37.81;25.50;101114.66;144152;585;132010;-67
2021/08/10 09:11:34;;;;;;;;;68.50;62.25;;;;;38.31;25.65;101111.31;144148;593;131020;-69
2021/08/10 09:14:08;;;;;;;;;65.75;58.75;;;;;38.59;25.62;101102.75;144158;581;132011;-67
2021/08/10 09:17:04;;;;;;;;;64.25;55.25;;;;;38.52;26.87;101098.34;144163;570;131026;-68
2021/08/10 09:20:04;;;;;;;;;64.00;54.50;;;;;38.73;26.60;101100.78;144158;569;132010;-68
2021/08/10 09:22:38;;;;;;;;;58.50;47.25;;;;;38.21;27.23;101092.56;144166;599;131020;-67
2021/08/10 09:25:19;;;;;;;;;59.00;49.00;;;;;38.70;27.02;101086.66;144161;664;132006;-67
2021/08/10 09:27:53;;;;;;;;;62.75;53.75;;;;;38.22;28.23;101086.03;144161;604;132009;-67
2021/08/10 09:30:30;;;;;;;;;69.00;65.25;;;;;38.16;27.62;101081.41;144171;566;132022;-67
2021/08/10 09:33:09;;;;;;;;;72.25;69.50;;;;;37.92;27.39;101091.19;144153;602;132010;-69
2021/08/10 09:35:43;;;;;;;;;65.00;56.00;;;;;38.12;27.05;101084.81;144164;605;132008;-67
2021/08/10 09:38:20;;;;;;;;;60.25;50.25;;;;;37.88;27.56;101090.81;144147;605;131028;-67
2021/08/10 09:40:55;;;;;;;;;60.50;49.75;;;;;38.10;26.65;101087.78;144163;633;133010;-67
2021/08/10 09:43:35;;;;;;;;;57.25;46.50;;;;;38.37;27.02;101087.66;144161;641;132008;-67
2021/08/10 09:46:21;;;;;;;;;55.50;45.75;;;;;38.00;26.50;101081.91;144161;629;132010;-68
2021/08/10 09:48:59;;;;;;;;;56.00;44.75;;;;;38.66;25.46;101078.03;144163;577;131916;-67
2021/08/10 09:51:35;;;;;;;;;58.25;47.75;;;;;39.15;23.37;101066.47;144164;564;132010;-68
2021/08/10 09:54:12;;;;;;;;;52.50;42.50;;;;;39.16;24.28;101065.47;144164;611;131010;-67
2021/08/10 09:56:59;;;;;;;;;54.75;44.75;;;;;38.12;26.80;101071.94;144170;571;132010;-67
2021/08/10 09:59:47;;;;;;;;;59.75;48.50;;;;;37.56;27.84;101074.19;144161;665;132008;-67
2021/08/10 10:02:23;;;;;;;;;61.50;52.25;;;;;38.39;27.25;101080.91;144159;615;132027;-68
2021/08/10 10:04:59;;;;;;;;;70.50;68.50;;;;;37.92;27.64;101075.62;144141;597;132008;-66
2021/08/10 10:07:33;;;;;;;;;76.00;74.25;;;;;37.95;27.21;101073.50;144159;679;131020;-66
2021/08/10 10:10:08;;;;;;;;;82.67;78.67;;;;;37.37;27.03;101070.47;144158;579;131998;-67
2021/08/10 10:12:45;;;;;;;;;71.25;67.75;;;;;38.25;27.19;101084.81;144164;611;131019;-67
2021/08/10 10:15:19;;;;;;;;;68.00;62.50;;;;;39.41;24.98;101070.91;144159;563;132008;-67
2021/08/10 10:17:53;;;;;;;;;63.75;54.50;;;;;38.56;24.85;101069.44;144154;600;132008;-67
2021/08/10 10:20:27;;;;;;;;;61.00;51.00;;;;;39.37;23.14;101058.69;144157;574;132017;-67
2021/08/10 10:23:04;;;;;;;;;88.50;84.75;;;;;39.78;22.10;101057.25;144170;569;132010;-67
2021/08/10 10:25:41;;;;;;;;;80.50;78.50;;;;;39.81;22.87;101059.53;144163;591;132008;-67
2021/08/10 10:28:19;;;;;;;;;69.75;67.75;;;;;39.65;23.48;101058.22;144158;598;132008;-66
2021/08/10 10:30:53;;;;;;;;;69.25;64.50;;;;;38.94;28.01;101052.09;144149;579;131020;-66
2021/08/10 10:33:27;;;;;;;;;87.67;83.67;;;;;38.10;31.08;101052.16;144159;886;131019;-67
2021/08/10 10:36:03;;;;;;;;;124.00;121.00;;;;;37.88;30.96;101041.50;144157;609;132008;-69
2021/08/10 10:38:40;;;;;;;;;110.33;106.67;;;;;37.68;31.46;101046.16;144162;615;132008;-70
2021/08/10 10:41:17;;;;;;;;;177.75;171.50;;;;;37.84;30.17;101039.38;144166;614;131917;-66
2021/08/10 10:43:55;;;;;;;;;114.00;112.33;;;;;37.98;32.07;101038.28;144159;566;132045;-66
2021/08/10 10:46:35;;;;;;;;;90.33;86.67;;;;;39.05;31.52;101034.06;144164;661;132008;-66
2021/08/10 10:49:11;;;;;;;;;75.00;73.00;;;;;39.27;31.27;101034.50;144173;570;132008;-68
2021/08/10 10:51:45;;;;;;;;;96.67;92.00;;;;;38.93;32.14;101029.31;144163;691;131020;-67
2021/08/10 10:54:28;;;;;;;;;100.33;96.00;;;;;39.57;31.13;101025.53;144159;589;132008;-67
2021/08/10 10:57:03;;;;;;;;;92.00;91.67;;;;;39.36;31.89;101013.09;144144;581;132008;-68
2021/08/10 10:59:48;;;;;;;;;105.67;104.33;;;;;39.36;31.79;101019.44;144157;648;132008;-69
2021/08/10 11:02:26;;;;;;;;;103.33;99.67;;;;;39.61;31.49;101015.81;144160;576;132916;-69
2021/08/10 11:05:32;;;;;;;;;98.00;96.00;;;;;39.94;30.50;101007.16;144163;647;131019;-68
2021/08/10 11:08:08;;;;;;;;;94.00;93.33;;;;;39.80;31.46;101013.88;144159;620;132008;-68
2021/08/10 11:10:53;;;;;;;;;127.67;121.00;;;;;39.44;31.82;101002.66;144163;587;132008;-66
2021/08/10 11:13:46;;;;;;;;;127.00;121.00;;;;;39.20;32.27;100993.41;144162;564;132008;-66
2021/08/10 11:16:20;;;;;;;;;119.00;115.00;;;;;39.01;32.40;100980.69;144174;662;131018;-68
2021/08/10 11:18:54;;;;;;;;;170.25;166.00;;;;;38.53;32.42;100985.69;144162;576;132008;-67
2021/08/10 11:21:29;;;;;;;;;151.75;145.50;;;;;38.61;31.99;100984.59;144164;565;132008;-66
2021/08/10 11:24:03;;;;;;;;;120.00;116.67;;;;;38.34;33.49;100978.47;144142;611;132010;-67
2021/08/10 11:26:38;;;;;;;;;91.00;86.00;;;;;38.86;33.20;100979.13;144164;930;131026;-66
2021/08/10 11:29:15;;;;;;;;;76.75;76.25;;;;;38.63;34.46;100971.50;144160;579;132008;-66
2021/08/10 11:31:53;;;;;;;;;73.25;68.50;;;;;38.96;33.90;100967.66;144152;637;132010;-67
2021/08/10 11:34:37;;;;;;;;;69.75;65.25;;;;;39.02;34.17;100969.47;144154;564;132010;-67
2021/08/10 11:37:24;;;;;;;;;71.00;67.50;;;;;38.85;33.96;100957.41;144159;595;132010;-66
2021/08/10 11:40:26;;;;;;;;;74.75;71.75;;;;;38.70;34.87;100963.22;144162;592;132010;-67
2021/08/10 11:43:00;;;;;;;;;82.33;78.00;;;;;39.15;33.75;100965.81;144167;578;132010;-66
2021/08/10 11:45:40;;;;;;;;;76.50;74.75;;;;;38.95;34.26;100948.69;144156;597;132008;-66